sensor_id;sensor_type;location;lat;lon;timestamp;temperature;humidity
24148;DHT22;12309;51.450;-2.624;2023-04-22T00:00:09;5.30;99.90
24148;DHT22;12309;51.450;-2.624;2023-04-22T00:02:36;5.20;99.90
24148;DHT22;12309;51.450;-2.624;2023-04-22T00:05:03;5.40;99.90
24148;DHT22;12309;51.450;-2.624;2023-04-22T00:07:29;5.30;99.90
24148;DHT22;12309;51.450;-2.624;2023-04-22T00:09:55;5.30;99.90
24148;DHT22;12309;51.450;-2.624;2023-04-22T00:12:20;5.30;99.90
24148;DHT22;12309;51.450;-2.624;2023-04-22T00:14:47;5.20;99.90
24148;DHT22;12309;51.450;-2.624;2023-04-22T00:17:12;5.30;99.90
24148;DHT22;12309;51.450;-2.624;2023-04-22T00:19:38;5.30;99.90
24148;DHT22;12309;51.450;-2.624;2023-04-22T00:22:04;5.10;99.90
24148;DHT22;12309;51.450;-2.624;2023-04-22T00:24:29;5.10;99.90
24148;DHT22;12309;51.450;-2.624;2023-04-22T00:26:55;5.00;99.90
24148;DHT22;12309;51.450;-2.624;2023-04-22T00:29:21;5.00;99.90
24148;DHT22;12309;51.450;-2.624;2023-04-22T00:31:46;5.10;99.90
24148;DHT22;12309;51.450;-2.624;2023-04-22T00:34:12;5.00;99.90
24148;DHT22;12309;51.450;-2.624;2023-04-22T00:36:38;5.00;99.90
24148;DHT22;12309;51.450;-2.624;2023-04-22T00:39:03;5.00;99.90
24148;DHT22;12309;51.450;-2.624;2023-04-22T00:41:29;4.90;99.90
24148;DHT22;12309;51.450;-2.624;2023-04-22T00:43:56;4.90;99.90
24148;DHT22;12309;51.450;-2.624;2023-04-22T00:46:22;4.80;99.90
24148;DHT22;12309;51.450;-2.624;2023-04-22T00:48:49;5.00;99.90
24148;DHT22;12309;51.450;-2.624;2023-04-22T00:51:15;7.10;99.90
24148;DHT22;12309;51.450;-2.624;2023-04-22T00:53:41;4.80;99.90
24148;DHT22;12309;51.450;-2.624;2023-04-22T00:56:07;4.70;99.90
24148;DHT22;12309;51.450;-2.624;2023-04-22T00:58:33;4.80;99.90
24148;DHT22;12309;51.450;-2.624;2023-04-22T01:00:58;4.70;99.90
24148;DHT22;12309;51.450;-2.624;2023-04-22T01:03:25;4.70;99.90
24148;DHT22;12309;51.450;-2.624;2023-04-22T01:05:52;4.70;99.90
24148;DHT22;12309;51.450;-2.624;2023-04-22T01:08:18;4.70;99.90
24148;DHT22;12309;51.450;-2.624;2023-04-22T01:10:44;4.70;99.90
24148;DHT22;12309;51.450;-2.624;2023-04-22T01:13:10;4.70;99.90
24148;DHT22;12309;51.450;-2.624;2023-04-22T01:15:36;4.40;99.90
24148;DHT22;12309;51.450;-2.624;2023-04-22T01:18:02;4.50;99.90
24148;DHT22;12309;51.450;-2.624;2023-04-22T01:20:29;4.50;99.90
24148;DHT22;12309;51.450;-2.624;2023-04-22T01:22:55;4.60;99.90
24148;DHT22;12309;51.450;-2.624;2023-04-22T01:25:24;4.50;99.90
24148;DHT22;12309;51.450;-2.624;2023-04-22T01:30:16;4.30;99.90
24148;DHT22;12309;51.450;-2.624;2023-04-22T01:32:42;4.50;99.90
24148;DHT22;12309;51.450;-2.624;2023-04-22T01:35:09;4.30;99.90
24148;DHT22;12309;51.450;-2.624;2023-04-22T01:37:35;4.50;99.90
24148;DHT22;12309;51.450;-2.624;2023-04-22T01:40:02;4.50;99.90
24148;DHT22;12309;51.450;-2.624;2023-04-22T01:42:29;4.50;99.90
24148;DHT22;12309;51.450;-2.624;2023-04-22T01:44:55;4.50;99.90
24148;DHT22;12309;51.450;-2.624;2023-04-22T01:47:20;4.50;99.90
24148;DHT22;12309;51.450;-2.624;2023-04-22T01:49:46;3.90;99.90
24148;DHT22;12309;51.450;-2.624;2023-04-22T01:52:12;4.30;99.90
24148;DHT22;12309;51.450;-2.624;2023-04-22T01:54:38;4.30;99.90
24148;DHT22;12309;51.450;-2.624;2023-04-22T01:57:08;4.40;99.90
24148;DHT22;12309;51.450;-2.624;2023-04-22T01:59:35;4.40;99.90
24148;DHT22;12309;51.450;-2.624;2023-04-22T02:02:01;4.20;99.90
24148;DHT22;12309;51.450;-2.624;2023-04-22T02:04:26;4.30;99.90
24148;DHT22;12309;51.450;-2.624;2023-04-22T02:06:52;4.20;99.90
24148;DHT22;12309;51.450;-2.624;2023-04-22T02:09:17;4.30;99.90
24148;DHT22;12309;51.450;-2.624;2023-04-22T02:11:43;4.30;99.90
24148;DHT22;12309;51.450;-2.624;2023-04-22T02:14:08;4.30;99.90
24148;DHT22;12309;51.450;-2.624;2023-04-22T02:16:34;4.40;99.90
24148;DHT22;12309;51.450;-2.624;2023-04-22T02:19:00;4.30;99.90
24148;DHT22;12309;51.450;-2.624;2023-04-22T02:21:28;4.20;99.90
24148;DHT22;12309;51.450;-2.624;2023-04-22T02:23:54;4.30;99.90
24148;DHT22;12309;51.450;-2.624;2023-04-22T02:26:19;4.30;99.90
24148;DHT22;12309;51.450;-2.624;2023-04-22T02:28:45;4.20;99.90
24148;DHT22;12309;51.450;-2.624;2023-04-22T02:31:11;4.30;99.90
24148;DHT22;12309;51.450;-2.624;2023-04-22T02:33:36;4.30;99.90
24148;DHT22;12309;51.450;-2.624;2023-04-22T02:36:03;4.30;99.90
24148;DHT22;12309;51.450;-2.624;2023-04-22T02:38:29;2.60;99.90
24148;DHT22;12309;51.450;-2.624;2023-04-22T02:40:54;4.20;99.90
24148;DHT22;12309;51.450;-2.624;2023-04-22T02:43:20;4.20;99.90
24148;DHT22;12309;51.450;-2.624;2023-04-22T02:45:45;4.10;99.90
24148;DHT22;12309;51.450;-2.624;2023-04-22T02:48:11;6.40;99.90
24148;DHT22;12309;51.450;-2.624;2023-04-22T02:50:37;4.10;99.90
24148;DHT22;12309;51.450;-2.624;2023-04-22T02:53:02;4.00;99.90
24148;DHT22;12309;51.450;-2.624;2023-04-22T02:55:28;4.00;99.90
24148;DHT22;12309;51.450;-2.624;2023-04-22T02:57:53;4.00;99.90
24148;DHT22;12309;51.450;-2.624;2023-04-22T03:00:19;4.00;99.90
24148;DHT22;12309;51.450;-2.624;2023-04-22T03:02:45;3.90;99.90
24148;DHT22;12309;51.450;-2.624;2023-04-22T03:05:10;3.80;99.90
24148;DHT22;12309;51.450;-2.624;2023-04-22T03:07:36;3.90;99.90
24148;DHT22;12309;51.450;-2.624;2023-04-22T03:10:02;4.00;99.90
24148;DHT22;12309;51.450;-2.624;2023-04-22T03:12:27;3.90;99.90
24148;DHT22;12309;51.450;-2.624;2023-04-22T03:14:53;3.90;99.90
24148;DHT22;12309;51.450;-2.624;2023-04-22T03:17:18;3.90;99.90
24148;DHT22;12309;51.450;-2.624;2023-04-22T03:22:10;4.00;99.90
24148;DHT22;12309;51.450;-2.624;2023-04-22T03:24:36;4.00;99.90
24148;DHT22;12309;51.450;-2.624;2023-04-22T03:27:02;4.00;99.90
24148;DHT22;12309;51.450;-2.624;2023-04-22T03:29:28;4.00;99.90
24148;DHT22;12309;51.450;-2.624;2023-04-22T03:31:54;4.00;99.90
24148;DHT22;12309;51.450;-2.624;2023-04-22T03:34:19;3.90;99.90
24148;DHT22;12309;51.450;-2.624;2023-04-22T03:36:45;3.80;99.90
24148;DHT22;12309;51.450;-2.624;2023-04-22T03:39:10;3.70;99.90
24148;DHT22;12309;51.450;-2.624;2023-04-22T03:41:36;3.80;99.90
24148;DHT22;12309;51.450;-2.624;2023-04-22T03:44:01;3.80;99.90
24148;DHT22;12309;51.450;-2.624;2023-04-22T03:46:27;4.10;99.90
24148;DHT22;12309;51.450;-2.624;2023-04-22T03:48:53;3.80;99.90
24148;DHT22;12309;51.450;-2.624;2023-04-22T03:51:18;3.60;99.90
24148;DHT22;12309;51.450;-2.624;2023-04-22T03:53:44;3.70;99.90
24148;DHT22;12309;51.450;-2.624;2023-04-22T03:56:09;3.70;99.90
24148;DHT22;12309;51.450;-2.624;2023-04-22T03:58:35;3.60;99.90
24148;DHT22;12309;51.450;-2.624;2023-04-22T04:01:01;3.30;99.90
24148;DHT22;12309;51.450;-2.624;2023-04-22T04:03:26;3.30;99.90
24148;DHT22;12309;51.450;-2.624;2023-04-22T04:05:53;3.20;99.90
24148;DHT22;12309;51.450;-2.624;2023-04-22T04:08:18;3.10;99.90
24148;DHT22;12309;51.450;-2.624;2023-04-22T04:10:44;3.00;99.90
24148;DHT22;12309;51.450;-2.624;2023-04-22T04:15:36;3.70;99.90
24148;DHT22;12309;51.450;-2.624;2023-04-22T04:18:02;3.30;99.90
24148;DHT22;12309;51.450;-2.624;2023-04-22T04:20:28;3.80;99.90
24148;DHT22;12309;51.450;-2.624;2023-04-22T04:22:54;3.50;99.90
24148;DHT22;12309;51.450;-2.624;2023-04-22T04:25:20;3.80;99.90
24148;DHT22;12309;51.450;-2.624;2023-04-22T04:27:46;3.60;99.90
24148;DHT22;12309;51.450;-2.624;2023-04-22T04:30:12;3.50;99.90
24148;DHT22;12309;51.450;-2.624;2023-04-22T04:32:39;3.60;99.90
24148;DHT22;12309;51.450;-2.624;2023-04-22T04:35:05;3.60;99.90
24148;DHT22;12309;51.450;-2.624;2023-04-22T04:37:31;3.70;99.90
24148;DHT22;12309;51.450;-2.624;2023-04-22T04:42:26;3.90;99.90
24148;DHT22;12309;51.450;-2.624;2023-04-22T04:44:51;3.90;99.90
24148;DHT22;12309;51.450;-2.624;2023-04-22T04:47:17;4.00;99.90
24148;DHT22;12309;51.450;-2.624;2023-04-22T04:49:44;4.10;99.90
24148;DHT22;12309;51.450;-2.624;2023-04-22T04:52:10;3.90;99.90
24148;DHT22;12309;51.450;-2.624;2023-04-22T04:54:36;3.70;99.90
24148;DHT22;12309;51.450;-2.624;2023-04-22T04:57:02;3.90;99.90
24148;DHT22;12309;51.450;-2.624;2023-04-22T04:59:28;3.90;99.90
24148;DHT22;12309;51.450;-2.624;2023-04-22T05:01:53;3.90;99.90
24148;DHT22;12309;51.450;-2.624;2023-04-22T05:04:20;4.00;99.90
24148;DHT22;12309;51.450;-2.624;2023-04-22T05:06:46;4.00;99.90
24148;DHT22;12309;51.450;-2.624;2023-04-22T05:09:11;4.00;99.90
24148;DHT22;12309;51.450;-2.624;2023-04-22T05:11:37;4.10;99.90
24148;DHT22;12309;51.450;-2.624;2023-04-22T05:14:04;4.00;99.90
24148;DHT22;12309;51.450;-2.624;2023-04-22T05:16:30;3.90;99.90
24148;DHT22;12309;51.450;-2.624;2023-04-22T05:18:55;3.90;99.90
24148;DHT22;12309;51.450;-2.624;2023-04-22T05:21:21;3.80;99.90
24148;DHT22;12309;51.450;-2.624;2023-04-22T05:23:46;3.60;99.90
24148;DHT22;12309;51.450;-2.624;2023-04-22T05:26:13;3.40;99.90
24148;DHT22;12309;51.450;-2.624;2023-04-22T05:28:38;3.30;99.90
24148;DHT22;12309;51.450;-2.624;2023-04-22T05:31:04;3.50;99.90
24148;DHT22;12309;51.450;-2.624;2023-04-22T05:33:29;3.50;99.90
24148;DHT22;12309;51.450;-2.624;2023-04-22T05:35:55;3.70;99.90
24148;DHT22;12309;51.450;-2.624;2023-04-22T05:38:21;3.50;99.90
24148;DHT22;12309;51.450;-2.624;2023-04-22T05:40:46;3.60;99.90
24148;DHT22;12309;51.450;-2.624;2023-04-22T05:43:12;3.60;99.90
24148;DHT22;12309;51.450;-2.624;2023-04-22T05:45:38;3.70;99.90
24148;DHT22;12309;51.450;-2.624;2023-04-22T05:48:04;3.70;99.90
24148;DHT22;12309;51.450;-2.624;2023-04-22T05:50:29;3.80;99.90
24148;DHT22;12309;51.450;-2.624;2023-04-22T05:52:55;3.80;99.90
24148;DHT22;12309;51.450;-2.624;2023-04-22T05:57:47;4.00;99.90
24148;DHT22;12309;51.450;-2.624;2023-04-22T06:00:13;4.10;99.90
24148;DHT22;12309;51.450;-2.624;2023-04-22T06:02:38;3.80;99.90
24148;DHT22;12309;51.450;-2.624;2023-04-22T06:05:04;3.80;99.90
24148;DHT22;12309;51.450;-2.624;2023-04-22T06:07:30;3.90;99.90
24148;DHT22;12309;51.450;-2.624;2023-04-22T06:09:56;4.00;99.90
24148;DHT22;12309;51.450;-2.624;2023-04-22T06:12:21;4.00;99.90
24148;DHT22;12309;51.450;-2.624;2023-04-22T06:14:48;4.10;99.90
24148;DHT22;12309;51.450;-2.624;2023-04-22T06:17:13;4.00;99.90
24148;DHT22;12309;51.450;-2.624;2023-04-22T06:19:39;4.00;99.90
24148;DHT22;12309;51.450;-2.624;2023-04-22T06:22:05;4.00;99.90
24148;DHT22;12309;51.450;-2.624;2023-04-22T06:24:30;4.10;99.90
24148;DHT22;12309;51.450;-2.624;2023-04-22T06:26:56;2.70;99.90
24148;DHT22;12309;51.450;-2.624;2023-04-22T06:29:22;5.20;99.90
24148;DHT22;12309;51.450;-2.624;2023-04-22T06:31:48;4.30;99.90
24148;DHT22;12309;51.450;-2.624;2023-04-22T06:34:14;4.30;99.90
24148;DHT22;12309;51.450;-2.624;2023-04-22T06:36:39;4.30;99.90
24148;DHT22;12309;51.450;-2.624;2023-04-22T06:39:05;4.40;99.90
24148;DHT22;12309;51.450;-2.624;2023-04-22T06:41:31;4.50;99.90
24148;DHT22;12309;51.450;-2.624;2023-04-22T06:43:57;3.50;99.90
24148;DHT22;12309;51.450;-2.624;2023-04-22T06:46:23;4.50;99.90
24148;DHT22;12309;51.450;-2.624;2023-04-22T06:48:49;4.70;99.90
24148;DHT22;12309;51.450;-2.624;2023-04-22T06:51:14;4.60;99.90
24148;DHT22;12309;51.450;-2.624;2023-04-22T06:53:40;4.90;99.90
24148;DHT22;12309;51.450;-2.624;2023-04-22T06:56:06;4.60;99.90
24148;DHT22;12309;51.450;-2.624;2023-04-22T06:58:31;4.70;99.90
24148;DHT22;12309;51.450;-2.624;2023-04-22T07:00:57;4.90;99.90
24148;DHT22;12309;51.450;-2.624;2023-04-22T07:03:23;4.90;99.90
24148;DHT22;12309;51.450;-2.624;2023-04-22T07:05:48;5.30;99.90
24148;DHT22;12309;51.450;-2.624;2023-04-22T07:08:14;5.20;99.90
24148;DHT22;12309;51.450;-2.624;2023-04-22T07:10:40;5.20;99.90
24148;DHT22;12309;51.450;-2.624;2023-04-22T07:13:05;5.20;99.90
24148;DHT22;12309;51.450;-2.624;2023-04-22T07:15:31;5.40;99.90
24148;DHT22;12309;51.450;-2.624;2023-04-22T07:20:23;5.50;99.90
24148;DHT22;12309;51.450;-2.624;2023-04-22T07:22:49;5.50;99.90
24148;DHT22;12309;51.450;-2.624;2023-04-22T07:25:15;5.60;99.90
24148;DHT22;12309;51.450;-2.624;2023-04-22T07:27:41;5.70;99.90
24148;DHT22;12309;51.450;-2.624;2023-04-22T07:30:07;5.70;99.90
24148;DHT22;12309;51.450;-2.624;2023-04-22T07:32:33;5.80;99.90
24148;DHT22;12309;51.450;-2.624;2023-04-22T07:34:58;6.00;99.90
24148;DHT22;12309;51.450;-2.624;2023-04-22T07:37:24;6.00;99.90
24148;DHT22;12309;51.450;-2.624;2023-04-22T07:39:50;6.40;99.90
24148;DHT22;12309;51.450;-2.624;2023-04-22T07:42:15;6.20;99.90
24148;DHT22;12309;51.450;-2.624;2023-04-22T07:44:41;6.30;99.90
24148;DHT22;12309;51.450;-2.624;2023-04-22T07:47:07;6.40;99.90
24148;DHT22;12309;51.450;-2.624;2023-04-22T07:49:35;6.50;99.90
24148;DHT22;12309;51.450;-2.624;2023-04-22T07:52:01;6.50;99.90
24148;DHT22;12309;51.450;-2.624;2023-04-22T07:54:26;6.70;99.90
24148;DHT22;12309;51.450;-2.624;2023-04-22T07:56:52;6.90;99.90
24148;DHT22;12309;51.450;-2.624;2023-04-22T07:59:18;7.10;99.90
24148;DHT22;12309;51.450;-2.624;2023-04-22T08:01:43;7.20;99.90
24148;DHT22;12309;51.450;-2.624;2023-04-22T08:04:11;7.30;99.90
24148;DHT22;12309;51.450;-2.624;2023-04-22T08:06:36;7.30;99.90
24148;DHT22;12309;51.450;-2.624;2023-04-22T08:09:02;7.60;99.90
24148;DHT22;12309;51.450;-2.624;2023-04-22T08:11:28;7.70;99.90
24148;DHT22;12309;51.450;-2.624;2023-04-22T08:13:53;8.00;99.90
24148;DHT22;12309;51.450;-2.624;2023-04-22T08:16:19;9.00;99.90
24148;DHT22;12309;51.450;-2.624;2023-04-22T08:18:45;9.30;99.90
24148;DHT22;12309;51.450;-2.624;2023-04-22T08:21:10;9.60;99.90
24148;DHT22;12309;51.450;-2.624;2023-04-22T08:23:37;10.10;99.90
24148;DHT22;12309;51.450;-2.624;2023-04-22T08:26:03;11.00;99.90
24148;DHT22;12309;51.450;-2.624;2023-04-22T08:28:28;12.20;99.90
24148;DHT22;12309;51.450;-2.624;2023-04-22T08:30:54;12.00;99.90
24148;DHT22;12309;51.450;-2.624;2023-04-22T08:33:19;12.60;99.90
24148;DHT22;12309;51.450;-2.624;2023-04-22T08:35:45;12.50;99.90
24148;DHT22;12309;51.450;-2.624;2023-04-22T08:38:11;11.90;99.90
24148;DHT22;12309;51.450;-2.624;2023-04-22T08:40:40;12.00;99.90
24148;DHT22;12309;51.450;-2.624;2023-04-22T08:43:07;11.90;99.90
24148;DHT22;12309;51.450;-2.624;2023-04-22T08:45:33;11.40;99.90
24148;DHT22;12309;51.450;-2.624;2023-04-22T08:47:59;12.40;99.90
24148;DHT22;12309;51.450;-2.624;2023-04-22T08:50:25;13.20;99.90
24148;DHT22;12309;51.450;-2.624;2023-04-22T08:52:52;13.00;99.90
24148;DHT22;12309;51.450;-2.624;2023-04-22T08:55:18;13.00;99.90
24148;DHT22;12309;51.450;-2.624;2023-04-22T08:57:44;12.90;99.90
24148;DHT22;12309;51.450;-2.624;2023-04-22T09:00:10;13.10;99.90
24148;DHT22;12309;51.450;-2.624;2023-04-22T09:02:37;13.40;99.90
24148;DHT22;12309;51.450;-2.624;2023-04-22T09:05:08;14.40;99.90
24148;DHT22;12309;51.450;-2.624;2023-04-22T09:07:34;14.90;99.90
24148;DHT22;12309;51.450;-2.624;2023-04-22T09:10:01;14.90;99.90
24148;DHT22;12309;51.450;-2.624;2023-04-22T09:12:27;14.90;99.90
24148;DHT22;12309;51.450;-2.624;2023-04-22T09:14:53;15.20;99.90
24148;DHT22;12309;51.450;-2.624;2023-04-22T09:17:33;14.80;99.90
24148;DHT22;12309;51.450;-2.624;2023-04-22T09:20:00;15.30;99.90
24148;DHT22;12309;51.450;-2.624;2023-04-22T09:22:45;15.20;99.90
24148;DHT22;12309;51.450;-2.624;2023-04-22T09:25:19;14.70;99.90
24148;DHT22;12309;51.450;-2.624;2023-04-22T09:27:57;14.70;99.90
24148;DHT22;12309;51.450;-2.624;2023-04-22T09:30:29;14.90;99.90
24148;DHT22;12309;51.450;-2.624;2023-04-22T09:32:57;14.70;99.90
24148;DHT22;12309;51.450;-2.624;2023-04-22T09:35:27;14.60;99.90
24148;DHT22;12309;51.450;-2.624;2023-04-22T09:37:53;14.60;99.90
24148;DHT22;12309;51.450;-2.624;2023-04-22T09:40:19;13.70;99.90
24148;DHT22;12309;51.450;-2.624;2023-04-22T09:42:49;12.40;99.90
24148;DHT22;12309;51.450;-2.624;2023-04-22T09:47:56;12.40;99.90
24148;DHT22;12309;51.450;-2.624;2023-04-22T09:50:25;12.30;99.90
24148;DHT22;12309;51.450;-2.624;2023-04-22T09:52:55;12.10;99.90
24148;DHT22;12309;51.450;-2.624;2023-04-22T09:55:23;12.20;99.90
24148;DHT22;12309;51.450;-2.624;2023-04-22T09:57:54;12.20;99.90
24148;DHT22;12309;51.450;-2.624;2023-04-22T10:00:21;11.90;99.90
24148;DHT22;12309;51.450;-2.624;2023-04-22T10:02:47;11.90;99.90
24148;DHT22;12309;51.450;-2.624;2023-04-22T10:05:12;12.10;99.90
24148;DHT22;12309;51.450;-2.624;2023-04-22T10:07:38;11.80;99.90
24148;DHT22;12309;51.450;-2.624;2023-04-22T10:10:08;12.00;99.90
24148;DHT22;12309;51.450;-2.624;2023-04-22T10:12:35;11.90;99.90
24148;DHT22;12309;51.450;-2.624;2023-04-22T10:15:01;12.30;99.90
24148;DHT22;12309;51.450;-2.624;2023-04-22T10:17:29;12.40;99.90
24148;DHT22;12309;51.450;-2.624;2023-04-22T10:19:56;12.70;99.90
24148;DHT22;12309;51.450;-2.624;2023-04-22T10:22:23;12.60;99.90
24148;DHT22;12309;51.450;-2.624;2023-04-22T10:24:48;13.00;99.90
24148;DHT22;12309;51.450;-2.624;2023-04-22T10:27:20;13.00;99.90
24148;DHT22;12309;51.450;-2.624;2023-04-22T10:29:46;13.10;99.90
24148;DHT22;12309;51.450;-2.624;2023-04-22T10:34:47;13.50;99.90
24148;DHT22;12309;51.450;-2.624;2023-04-22T10:37:17;14.00;99.90
24148;DHT22;12309;51.450;-2.624;2023-04-22T10:42:32;13.80;99.90
24148;DHT22;12309;51.450;-2.624;2023-04-22T10:45:02;13.90;99.90
24148;DHT22;12309;51.450;-2.624;2023-04-22T10:47:33;13.70;99.90
24148;DHT22;12309;51.450;-2.624;2023-04-22T10:50:24;14.40;99.90
24148;DHT22;12309;51.450;-2.624;2023-04-22T10:55:51;17.20;99.90
24148;DHT22;12309;51.450;-2.624;2023-04-22T10:58:22;17.10;99.90
24148;DHT22;12309;51.450;-2.624;2023-04-22T11:00:52;16.80;99.90
24148;DHT22;12309;51.450;-2.624;2023-04-22T11:03:28;16.30;99.90
24148;DHT22;12309;51.450;-2.624;2023-04-22T11:06:18;15.20;99.90
24148;DHT22;12309;51.450;-2.624;2023-04-22T11:08:48;14.30;99.90
24148;DHT22;12309;51.450;-2.624;2023-04-22T11:11:17;15.80;99.90
24148;DHT22;12309;51.450;-2.624;2023-04-22T11:13:43;16.00;99.90
24148;DHT22;12309;51.450;-2.624;2023-04-22T11:16:09;16.30;99.90
24148;DHT22;12309;51.450;-2.624;2023-04-22T11:18:36;15.90;99.90
24148;DHT22;12309;51.450;-2.624;2023-04-22T11:21:04;15.50;99.90
24148;DHT22;12309;51.450;-2.624;2023-04-22T11:23:34;16.20;99.90
24148;DHT22;12309;51.450;-2.624;2023-04-22T11:26:05;17.20;99.90
24148;DHT22;12309;51.450;-2.624;2023-04-22T11:28:30;16.80;99.90
24148;DHT22;12309;51.450;-2.624;2023-04-22T11:31:04;16.60;99.90
24148;DHT22;12309;51.450;-2.624;2023-04-22T11:33:31;16.70;99.90
24148;DHT22;12309;51.450;-2.624;2023-04-22T11:35:57;16.90;99.90
24148;DHT22;12309;51.450;-2.624;2023-04-22T11:38:23;15.90;99.90
24148;DHT22;12309;51.450;-2.624;2023-04-22T11:40:48;16.50;99.90
24148;DHT22;12309;51.450;-2.624;2023-04-22T11:43:14;16.20;99.90
24148;DHT22;12309;51.450;-2.624;2023-04-22T11:45:40;16.30;99.90
24148;DHT22;12309;51.450;-2.624;2023-04-22T11:48:07;16.30;99.90
24148;DHT22;12309;51.450;-2.624;2023-04-22T11:50:36;15.70;99.90
24148;DHT22;12309;51.450;-2.624;2023-04-22T11:53:13;15.00;99.90
24148;DHT22;12309;51.450;-2.624;2023-04-22T11:55:40;15.40;99.90
24148;DHT22;12309;51.450;-2.624;2023-04-22T12:00:40;15.80;99.90
24148;DHT22;12309;51.450;-2.624;2023-04-22T12:03:19;15.90;99.90
24148;DHT22;12309;51.450;-2.624;2023-04-22T12:05:50;16.00;99.90
24148;DHT22;12309;51.450;-2.624;2023-04-22T12:08:18;17.70;99.90
24148;DHT22;12309;51.450;-2.624;2023-04-22T12:10:55;17.30;99.90
24148;DHT22;12309;51.450;-2.624;2023-04-22T12:13:26;17.30;99.90
24148;DHT22;12309;51.450;-2.624;2023-04-22T12:15:58;16.30;99.90
24148;DHT22;12309;51.450;-2.624;2023-04-22T12:18:48;16.30;99.90
24148;DHT22;12309;51.450;-2.624;2023-04-22T12:21:20;16.50;99.90
24148;DHT22;12309;51.450;-2.624;2023-04-22T12:23:50;17.20;99.90
24148;DHT22;12309;51.450;-2.624;2023-04-22T12:26:18;17.90;99.90
24148;DHT22;12309;51.450;-2.624;2023-04-22T12:28:45;17.90;99.90
24148;DHT22;12309;51.450;-2.624;2023-04-22T12:31:12;17.20;99.90
24148;DHT22;12309;51.450;-2.624;2023-04-22T12:33:39;16.40;99.90
24148;DHT22;12309;51.450;-2.624;2023-04-22T12:36:05;16.30;99.90
24148;DHT22;12309;51.450;-2.624;2023-04-22T12:38:32;16.60;99.90
24148;DHT22;12309;51.450;-2.624;2023-04-22T12:40:58;16.60;99.90
24148;DHT22;12309;51.450;-2.624;2023-04-22T12:43:24;16.00;99.90
24148;DHT22;12309;51.450;-2.624;2023-04-22T12:45:49;15.50;99.90
24148;DHT22;12309;51.450;-2.624;2023-04-22T12:48:15;15.50;99.90
24148;DHT22;12309;51.450;-2.624;2023-04-22T12:50:41;15.10;99.90
24148;DHT22;12309;51.450;-2.624;2023-04-22T12:53:07;15.70;99.90
24148;DHT22;12309;51.450;-2.624;2023-04-22T12:55:33;15.70;99.90
24148;DHT22;12309;51.450;-2.624;2023-04-22T12:57:59;15.20;99.90
24148;DHT22;12309;51.450;-2.624;2023-04-22T13:00:25;14.70;99.90
24148;DHT22;12309;51.450;-2.624;2023-04-22T13:02:50;14.60;99.90
24148;DHT22;12309;51.450;-2.624;2023-04-22T13:05:18;14.40;99.90
24148;DHT22;12309;51.450;-2.624;2023-04-22T13:07:44;14.00;99.90
24148;DHT22;12309;51.450;-2.624;2023-04-22T13:10:12;14.70;99.90
24148;DHT22;12309;51.450;-2.624;2023-04-22T13:12:39;15.10;99.90
24148;DHT22;12309;51.450;-2.624;2023-04-22T13:15:05;15.20;99.90
24148;DHT22;12309;51.450;-2.624;2023-04-22T13:17:31;15.50;99.90
24148;DHT22;12309;51.450;-2.624;2023-04-22T13:19:57;15.70;99.90
24148;DHT22;12309;51.450;-2.624;2023-04-22T13:22:23;15.60;99.90
24148;DHT22;12309;51.450;-2.624;2023-04-22T13:24:49;15.20;99.90
24148;DHT22;12309;51.450;-2.624;2023-04-22T13:27:15;15.00;99.90
24148;DHT22;12309;51.450;-2.624;2023-04-22T13:29:41;14.40;99.90
24148;DHT22;12309;51.450;-2.624;2023-04-22T13:32:07;14.40;99.90
24148;DHT22;12309;51.450;-2.624;2023-04-22T13:34:33;14.30;99.90
24148;DHT22;12309;51.450;-2.624;2023-04-22T13:36:58;14.40;99.90
24148;DHT22;12309;51.450;-2.624;2023-04-22T13:39:25;14.50;99.90
24148;DHT22;12309;51.450;-2.624;2023-04-22T13:41:51;14.30;99.90
24148;DHT22;12309;51.450;-2.624;2023-04-22T13:44:16;14.40;99.90
24148;DHT22;12309;51.450;-2.624;2023-04-22T13:46:42;14.60;99.90
24148;DHT22;12309;51.450;-2.624;2023-04-22T13:49:09;14.60;99.90
24148;DHT22;12309;51.450;-2.624;2023-04-22T13:51:35;14.50;99.90
24148;DHT22;12309;51.450;-2.624;2023-04-22T13:54:04;14.60;99.90
24148;DHT22;12309;51.450;-2.624;2023-04-22T13:56:31;14.60;99.90
24148;DHT22;12309;51.450;-2.624;2023-04-22T13:58:57;14.40;99.90
24148;DHT22;12309;51.450;-2.624;2023-04-22T14:01:22;14.40;99.90
24148;DHT22;12309;51.450;-2.624;2023-04-22T14:03:50;14.20;99.90
24148;DHT22;12309;51.450;-2.624;2023-04-22T14:06:16;14.10;99.90
24148;DHT22;12309;51.450;-2.624;2023-04-22T14:08:41;14.00;99.90
24148;DHT22;12309;51.450;-2.624;2023-04-22T14:11:07;13.90;99.90
24148;DHT22;12309;51.450;-2.624;2023-04-22T14:13:33;13.80;99.90
24148;DHT22;12309;51.450;-2.624;2023-04-22T14:15:59;13.40;99.90
24148;DHT22;12309;51.450;-2.624;2023-04-22T14:18:26;13.50;99.90
24148;DHT22;12309;51.450;-2.624;2023-04-22T14:20:53;13.60;99.90
24148;DHT22;12309;51.450;-2.624;2023-04-22T14:23:18;13.50;99.90
24148;DHT22;12309;51.450;-2.624;2023-04-22T14:25:45;13.40;99.90
24148;DHT22;12309;51.450;-2.624;2023-04-22T14:28:11;13.40;99.90
24148;DHT22;12309;51.450;-2.624;2023-04-22T14:30:37;13.40;99.90
24148;DHT22;12309;51.450;-2.624;2023-04-22T14:33:03;13.40;99.90
24148;DHT22;12309;51.450;-2.624;2023-04-22T14:35:36;13.40;99.90
24148;DHT22;12309;51.450;-2.624;2023-04-22T14:38:04;13.10;99.90
24148;DHT22;12309;51.450;-2.624;2023-04-22T14:40:30;13.00;99.90
24148;DHT22;12309;51.450;-2.624;2023-04-22T14:42:57;13.10;99.90
24148;DHT22;12309;51.450;-2.624;2023-04-22T14:45:24;13.20;99.90
24148;DHT22;12309;51.450;-2.624;2023-04-22T14:47:50;13.10;99.90
24148;DHT22;12309;51.450;-2.624;2023-04-22T14:50:15;13.00;99.90
24148;DHT22;12309;51.450;-2.624;2023-04-22T14:52:41;13.00;99.90
24148;DHT22;12309;51.450;-2.624;2023-04-22T14:55:07;13.10;99.90
24148;DHT22;12309;51.450;-2.624;2023-04-22T14:57:32;13.10;99.90
24148;DHT22;12309;51.450;-2.624;2023-04-22T14:59:58;13.20;99.90
24148;DHT22;12309;51.450;-2.624;2023-04-22T15:02:24;13.30;99.90
24148;DHT22;12309;51.450;-2.624;2023-04-22T15:04:50;13.60;99.90
24148;DHT22;12309;51.450;-2.624;2023-04-22T15:07:16;13.80;99.90
24148;DHT22;12309;51.450;-2.624;2023-04-22T15:09:41;14.00;99.90
24148;DHT22;12309;51.450;-2.624;2023-04-22T15:14:34;14.00;99.90
24148;DHT22;12309;51.450;-2.624;2023-04-22T15:17:00;13.90;99.90
24148;DHT22;12309;51.450;-2.624;2023-04-22T15:19:26;13.90;99.90
24148;DHT22;12309;51.450;-2.624;2023-04-22T15:21:52;13.90;99.90
24148;DHT22;12309;51.450;-2.624;2023-04-22T15:24:18;13.50;99.90
24148;DHT22;12309;51.450;-2.624;2023-04-22T15:26:47;13.60;99.90
24148;DHT22;12309;51.450;-2.624;2023-04-22T15:29:13;13.70;99.90
24148;DHT22;12309;51.450;-2.624;2023-04-22T15:31:38;13.90;99.90
24148;DHT22;12309;51.450;-2.624;2023-04-22T15:34:04;13.80;99.90
24148;DHT22;12309;51.450;-2.624;2023-04-22T15:36:30;13.80;99.90
24148;DHT22;12309;51.450;-2.624;2023-04-22T15:38:57;13.80;99.90
24148;DHT22;12309;51.450;-2.624;2023-04-22T15:41:24;13.70;99.90
24148;DHT22;12309;51.450;-2.624;2023-04-22T15:43:51;13.60;99.90
24148;DHT22;12309;51.450;-2.624;2023-04-22T15:46:17;13.60;99.90
24148;DHT22;12309;51.450;-2.624;2023-04-22T15:48:43;13.40;99.90
24148;DHT22;12309;51.450;-2.624;2023-04-22T15:51:15;13.40;99.90